createdAt,value
2017-04-10T00:00:10.940Z,9.25
2017-04-10T00:01:09.220Z,9.62
2017-04-10T00:02:07.571Z,8.48
2017-04-10T00:03:05.885Z,9.07
2017-04-10T00:04:04.187Z,11.70
2017-04-10T00:05:02.481Z,9.53
2017-04-10T00:06:00.783Z,9.67
2017-04-10T00:06:59.087Z,10.02
2017-04-10T00:07:57.435Z,9.25
2017-04-10T00:08:55.718Z,10.23
2017-04-10T00:09:54.014Z,9.48
2017-04-10T00:10:52.329Z,9.77
2017-04-10T00:11:50.616Z,9.82
2017-04-10T00:12:49.438Z,10.70
2017-04-10T00:13:47.789Z,10.18
2017-04-10T00:14:46.109Z,9.45
2017-04-10T00:15:44.465Z,12.47
2017-04-10T00:16:42.773Z,11.05
2017-04-10T00:17:41.105Z,11.97
2017-04-10T00:18:39.463Z,11.43
2017-04-10T00:19:37.789Z,10.17
2017-04-10T00:20:36.098Z,10.40
2017-04-10T00:21:34.421Z,10.20
2017-04-10T00:22:32.687Z,10.18
2017-04-10T00:23:30.965Z,9.43
2017-04-10T00:24:29.303Z,10.87
2017-04-10T00:25:27.617Z,10.05
2017-04-10T00:26:25.926Z,10.18
2017-04-10T00:27:24.221Z,9.92
2017-04-10T00:28:22.519Z,10.67
2017-04-10T00:29:20.806Z,11.03
2017-04-10T00:30:19.109Z,10.35
2017-04-10T00:31:17.405Z,10.85
2017-04-10T00:32:15.663Z,11.27
2017-04-10T00:33:13.954Z,10.28
2017-04-10T00:34:12.307Z,10.55
2017-04-10T00:35:10.585Z,11.57
2017-04-10T00:36:08.865Z,10.52
2017-04-10T00:37:07.165Z,10.88
2017-04-10T00:38:05.509Z,11.28
2017-04-10T00:39:04.205Z,10.48
2017-04-10T00:40:02.505Z,10.93
2017-04-10T00:41:00.841Z,11.38
2017-04-10T00:41:59.818Z,10.67
2017-04-10T00:42:58.146Z,11.05
2017-04-10T00:43:56.400Z,10.90
2017-04-10T00:44:54.666Z,11.07
2017-04-10T00:45:52.979Z,10.80
2017-04-10T00:46:51.249Z,10.62
2017-04-10T00:47:49.521Z,10.50
2017-04-10T00:48:47.816Z,10.75
2017-04-10T00:49:46.302Z,11.13
2017-04-10T00:50:44.542Z,10.38
2017-04-10T00:51:42.798Z,10.87
2017-04-10T00:52:41.078Z,11.23
2017-04-10T00:53:39.347Z,11.48
2017-04-10T00:54:37.661Z,10.75
2017-04-10T00:55:35.947Z,10.98
2017-04-10T00:56:34.224Z,11.70
2017-04-10T00:57:32.518Z,11.45
2017-04-10T00:58:30.800Z,11.15
2017-04-10T00:59:29.077Z,11.25
2017-04-10T01:00:27.429Z,11.52
2017-04-10T01:01:25.774Z,11.27
2017-04-10T01:02:24.109Z,11.02
2017-04-10T01:03:22.359Z,10.55
2017-04-10T01:04:20.589Z,11.67
2017-04-10T01:05:18.991Z,11.70
2017-04-10T01:06:17.284Z,10.82
2017-04-10T01:07:15.548Z,10.97
2017-04-10T01:08:13.825Z,11.73
2017-04-10T01:09:12.111Z,11.10
2017-04-10T01:10:10.408Z,11.73
2017-04-10T01:11:08.681Z,11.67
2017-04-10T01:12:06.933Z,11.40
2017-04-10T01:13:05.279Z,13.03
2017-04-10T01:14:03.617Z,10.50
2017-04-10T01:15:01.998Z,11.93
2017-04-10T01:16:00.256Z,11.67
2017-04-10T01:16:58.516Z,10.53
2017-04-10T01:17:56.782Z,11.40
2017-04-10T01:18:55.308Z,11.80
2017-04-10T01:19:53.743Z,10.95
2017-04-10T01:20:52.108Z,11.92
2017-04-10T01:21:50.397Z,11.00
2017-04-10T01:22:48.657Z,12.13
2017-04-10T01:23:46.981Z,11.05
2017-04-10T01:24:45.372Z,12.50
2017-04-10T01:25:43.705Z,11.78
2017-04-10T01:26:41.987Z,11.32
2017-04-10T01:27:40.418Z,12.15
2017-04-10T01:28:38.730Z,11.28
2017-04-10T01:29:37.125Z,11.13
2017-04-10T01:30:35.497Z,11.60
2017-04-10T01:31:33.851Z,10.90
2017-04-10T01:32:32.147Z,11.92
2017-04-10T01:33:30.484Z,11.78
2017-04-10T01:34:28.955Z,11.57
2017-04-10T01:35:27.241Z,11.38
2017-04-10T01:36:25.549Z,11.15
2017-04-10T01:37:23.818Z,12.50
2017-04-10T01:38:22.132Z,11.92
2017-04-10T01:39:20.393Z,11.58
2017-04-10T01:40:18.673Z,11.65
2017-04-10T01:41:17.057Z,10.90
2017-04-10T01:42:15.313Z,11.53
2017-04-10T01:43:13.590Z,12.30
2017-04-10T01:44:11.918Z,11.15
2017-04-10T01:45:10.233Z,10.65
2017-04-10T01:46:08.535Z,10.83
2017-04-10T01:47:06.884Z,11.78
2017-04-10T01:48:05.194Z,10.77
2017-04-10T01:49:03.533Z,12.88
2017-04-10T01:50:01.809Z,10.27
2017-04-10T01:51:00.087Z,11.73
2017-04-10T01:51:58.408Z,11.98
2017-04-10T01:52:56.720Z,11.45
2017-04-10T01:53:55.027Z,11.05
2017-04-10T01:54:53.317Z,11.90
2017-04-10T01:55:51.589Z,11.70
2017-04-10T01:56:49.983Z,10.77
2017-04-10T01:57:48.256Z,12.02
2017-04-10T01:58:46.559Z,11.28
2017-04-10T01:59:44.830Z,10.90
2017-04-10T02:00:43.177Z,11.72
2017-04-10T02:01:41.501Z,12.20
2017-04-10T02:02:39.834Z,11.15
2017-04-10T02:03:38.141Z,10.70
2017-04-10T02:04:36.437Z,11.28
2017-04-10T02:05:34.709Z,11.97
2017-04-10T02:06:32.989Z,10.57
2017-04-10T02:07:31.296Z,10.77
2017-04-10T02:08:29.973Z,11.63
2017-04-10T02:09:28.285Z,11.75
2017-04-10T02:10:26.618Z,11.58
2017-04-10T02:11:24.898Z,10.77
2017-04-10T02:12:23.169Z,12.88
2017-04-10T02:13:21.473Z,11.55
2017-04-10T02:14:19.802Z,12.83
2017-04-10T02:15:18.078Z,12.67
2017-04-10T02:16:16.398Z,12.57
2017-04-10T02:17:14.696Z,11.40
2017-04-10T02:18:12.969Z,11.55
2017-04-10T02:19:11.268Z,12.22
2017-04-10T02:20:09.581Z,11.85
2017-04-10T02:21:07.900Z,12.03
2017-04-10T02:22:06.270Z,12.12
2017-04-10T02:23:04.576Z,12.08
2017-04-10T02:24:02.873Z,11.35
2017-04-10T02:25:01.245Z,10.80
2017-04-10T02:25:59.597Z,12.75
2017-04-10T02:26:57.909Z,10.80
2017-04-10T02:27:56.237Z,11.45
2017-04-10T02:28:54.512Z,12.65
2017-04-10T02:29:52.774Z,12.40
2017-04-10T02:30:51.093Z,12.00
2017-04-10T02:31:49.368Z,11.13
2017-04-10T02:32:47.662Z,12.57
2017-04-10T02:33:45.967Z,12.38
2017-04-10T02:34:44.265Z,12.00
2017-04-10T02:35:42.555Z,11.97
2017-04-10T02:36:40.825Z,12.68
2017-04-10T02:37:39.080Z,11.97
2017-04-10T02:38:37.514Z,12.97
2017-04-10T02:39:36.594Z,11.78
2017-04-10T02:40:34.912Z,12.32
2017-04-10T02:41:33.179Z,12.25
2017-04-10T02:42:31.444Z,12.18
2017-04-10T02:43:29.720Z,11.77
2017-04-10T02:44:28.006Z,11.43
2017-04-10T02:45:26.258Z,11.07
2017-04-10T02:46:24.529Z,13.20
2017-04-10T02:47:22.781Z,12.52
2017-04-10T02:48:21.042Z,11.08
2017-04-10T02:49:19.309Z,11.77
2017-04-10T02:50:17.589Z,11.93
2017-04-10T02:51:15.865Z,11.80
2017-04-10T02:52:14.210Z,11.28
2017-04-10T02:53:12.514Z,11.50
2017-04-10T02:54:10.778Z,11.30
2017-04-10T02:55:09.073Z,11.87
2017-04-10T02:56:07.363Z,13.15
2017-04-10T02:57:05.622Z,13.10
2017-04-10T02:58:04.057Z,13.50
2017-04-10T02:59:02.313Z,11.75
2017-04-10T03:00:00.545Z,11.03
2017-04-10T03:00:58.979Z,11.10
2017-04-10T03:01:57.280Z,11.02
2017-04-10T03:02:55.521Z,11.52
2017-04-10T03:03:53.782Z,11.95
2017-04-10T03:04:52.032Z,11.28
2017-04-10T03:05:50.285Z,10.38
2017-04-10T03:06:48.528Z,13.23
2017-04-10T03:07:46.792Z,12.67
2017-04-10T03:08:45.141Z,11.28
2017-04-10T03:09:43.424Z,12.55
2017-04-10T03:10:41.732Z,12.38
2017-04-10T03:11:40.030Z,13.13
2017-04-10T03:12:38.302Z,11.30
2017-04-10T03:13:36.521Z,12.02
2017-04-10T03:14:34.985Z,10.65
2017-04-10T03:15:33.237Z,11.28
2017-04-10T03:16:32.867Z,11.03
2017-04-10T03:17:31.249Z,11.95
2017-04-10T03:18:29.527Z,12.00
2017-04-10T03:19:27.805Z,12.00
2017-04-10T03:20:26.212Z,10.85
2017-04-10T03:21:24.565Z,11.85
2017-04-10T03:22:22.810Z,12.03
2017-04-10T03:23:21.060Z,11.18
2017-04-10T03:24:19.302Z,11.13
2017-04-10T03:25:17.568Z,12.10
2017-04-10T03:26:15.833Z,12.88
2017-04-10T03:27:14.036Z,10.65
2017-04-10T03:28:12.237Z,13.07
2017-04-10T03:29:10.450Z,12.47
2017-04-10T03:30:08.686Z,13.18
2017-04-10T03:31:06.884Z,12.90
2017-04-10T03:32:05.140Z,11.42
2017-04-10T03:33:03.377Z,12.02
2017-04-10T03:34:02.050Z,11.50
2017-04-10T03:35:00.361Z,11.77
2017-04-10T03:35:58.586Z,11.85
2017-04-10T03:36:56.810Z,12.88
2017-04-10T03:37:55.077Z,12.50
2017-04-10T03:38:53.347Z,11.83
2017-04-10T03:39:51.591Z,13.88
2017-04-10T03:40:49.853Z,12.93
2017-04-10T03:41:48.491Z,12.35
2017-04-10T03:42:47.294Z,13.22
2017-04-10T03:43:45.909Z,11.28
2017-04-10T03:44:44.160Z,12.40
2017-04-10T03:45:42.446Z,12.97
2017-04-10T03:46:40.699Z,12.03
2017-04-10T03:47:38.937Z,11.80
2017-04-10T03:48:37.209Z,12.20
2017-04-10T03:49:35.491Z,11.70
2017-04-10T03:50:33.727Z,12.47
2017-04-10T03:51:31.993Z,13.32
2017-04-10T03:52:30.229Z,12.67
2017-04-10T03:53:28.465Z,12.95
2017-04-10T03:54:26.768Z,12.47
2017-04-10T03:55:25.060Z,12.77
2017-04-10T03:56:23.301Z,13.20
2017-04-10T03:57:21.531Z,12.53
2017-04-10T03:58:19.777Z,12.82
2017-04-10T03:59:18.066Z,13.05
2017-04-10T04:00:16.325Z,12.92
2017-04-10T04:01:14.651Z,12.78
2017-04-10T04:02:12.920Z,12.35
2017-04-10T04:03:11.206Z,12.73
2017-04-10T04:04:09.444Z,12.23
2017-04-10T04:05:07.673Z,13.80
2017-04-10T04:06:05.909Z,12.40
2017-04-10T04:07:04.181Z,13.48
2017-04-10T04:08:02.481Z,13.13
2017-04-10T04:09:00.713Z,14.00
2017-04-10T04:09:59.014Z,12.63
2017-04-10T04:10:57.286Z,13.68
2017-04-10T04:11:55.501Z,12.20
2017-04-10T04:12:53.814Z,14.23
2017-04-10T04:13:52.065Z,13.05
2017-04-10T04:14:50.352Z,15.05
2017-04-10T04:15:48.605Z,12.92
2017-04-10T04:16:50.583Z,14.60
2017-04-10T04:17:48.793Z,15.40
2017-04-10T04:18:47.030Z,13.15
2017-04-10T04:19:45.267Z,14.90
2017-04-10T04:20:43.530Z,15.30
2017-04-10T04:21:41.809Z,15.57
2017-04-10T04:22:40.039Z,15.33
2017-04-10T04:23:38.281Z,16.28
2017-04-10T04:24:36.905Z,13.97
2017-04-10T04:25:35.149Z,13.90
2017-04-10T04:26:33.388Z,14.20
2017-04-10T04:27:31.649Z,15.13
2017-04-10T04:28:29.897Z,14.68
2017-04-10T04:29:28.146Z,15.77
2017-04-10T04:30:26.409Z,14.62
2017-04-10T04:31:24.662Z,14.78
2017-04-10T04:32:22.921Z,14.90
2017-04-10T04:33:21.146Z,15.95
2017-04-10T04:34:19.401Z,15.55
2017-04-10T04:35:17.645Z,15.25
2017-04-10T04:36:15.902Z,15.27
2017-04-10T04:37:14.145Z,13.70
2017-04-10T04:38:12.393Z,15.35
2017-04-10T04:39:10.657Z,15.98
2017-04-10T04:40:08.882Z,15.90
2017-04-10T04:41:07.129Z,15.27
2017-04-10T04:42:05.414Z,15.25
2017-04-10T04:43:03.654Z,16.33
2017-04-10T04:44:01.906Z,15.73
2017-04-10T04:45:00.390Z,15.20
2017-04-10T04:45:58.672Z,14.70
2017-04-10T04:46:56.913Z,14.50
2017-04-10T04:47:55.200Z,13.47
2017-04-10T04:48:53.517Z,14.82
2017-04-10T04:49:51.746Z,14.32
2017-04-10T04:50:49.998Z,15.30
2017-04-10T04:51:48.273Z,15.32
2017-04-10T04:52:46.837Z,15.38
2017-04-10T04:53:45.089Z,15.78
2017-04-10T04:54:43.337Z,16.17
2017-04-10T04:55:41.592Z,16.67
2017-04-10T04:56:39.865Z,15.42
2017-04-10T04:57:38.087Z,16.30
2017-04-10T04:58:36.321Z,15.93
2017-04-10T04:59:34.593Z,17.33
2017-04-10T05:00:32.922Z,15.87
2017-04-10T05:01:31.162Z,14.97
2017-04-10T05:02:29.393Z,16.62
2017-04-10T05:03:27.749Z,16.40
2017-04-10T05:04:25.992Z,16.13
2017-04-10T05:05:24.234Z,15.27
2017-04-10T05:06:22.457Z,17.70
2017-04-10T05:07:20.698Z,16.50
2017-04-10T05:08:18.952Z,17.60
2017-04-10T05:09:17.181Z,17.82
2017-04-10T05:10:15.870Z,17.67
2017-04-10T05:11:14.183Z,17.03
2017-04-10T05:12:12.394Z,16.78
2017-04-10T05:13:10.624Z,18.00
2017-04-10T05:14:08.828Z,17.07
2017-04-10T05:15:07.090Z,18.13
2017-04-10T05:16:05.336Z,15.48
2017-04-10T05:17:03.632Z,16.35
2017-04-10T05:18:01.889Z,16.75
2017-04-10T05:19:00.192Z,17.50
2017-04-10T05:19:58.471Z,16.27
2017-04-10T05:20:56.738Z,15.97
2017-04-10T05:21:55.185Z,18.07
2017-04-10T05:22:53.437Z,17.02
2017-04-10T05:23:51.717Z,16.10
2017-04-10T05:24:49.941Z,17.33
2017-04-10T05:25:48.205Z,15.73
2017-04-10T05:26:46.452Z,16.37
2017-04-10T05:27:44.770Z,17.32
2017-04-10T05:28:43.057Z,19.05
2017-04-10T05:29:41.710Z,18.68
2017-04-10T05:30:39.937Z,18.05
2017-04-10T05:31:38.202Z,17.17
2017-04-10T05:32:36.439Z,16.22
2017-04-10T05:33:34.702Z,17.00
2017-04-10T05:34:33.004Z,16.95
2017-04-10T05:35:32.076Z,17.42
2017-04-10T05:36:30.316Z,17.03
2017-04-10T05:37:28.565Z,17.28
2017-04-10T05:38:26.790Z,16.68
2017-04-10T05:39:25.071Z,17.43
2017-04-10T05:40:23.341Z,18.00
2017-04-10T05:41:21.579Z,18.08
2017-04-10T05:42:19.853Z,16.20
2017-04-10T05:43:18.113Z,17.77
2017-04-10T05:44:16.445Z,17.77
2017-04-10T05:45:14.724Z,18.10
2017-04-10T05:46:13.013Z,17.30
2017-04-10T05:47:11.265Z,15.60
2017-04-10T05:48:09.507Z,18.97
2017-04-10T05:49:07.744Z,18.93
2017-04-10T05:50:06.013Z,18.05
2017-04-10T05:51:04.285Z,19.10
2017-04-10T05:52:02.585Z,19.10
2017-04-10T05:53:00.845Z,19.82
2017-04-10T05:53:59.125Z,20.02
2017-04-10T05:54:57.497Z,21.83
2017-04-10T05:55:55.970Z,20.12
2017-04-10T05:56:54.337Z,19.62
2017-04-10T05:57:53.032Z,20.70
2017-04-10T05:58:51.364Z,21.92
2017-04-10T05:59:49.721Z,22.15
2017-04-10T06:00:48.069Z,21.42
2017-04-10T06:01:46.423Z,20.90
2017-04-10T06:02:44.923Z,22.30
2017-04-10T06:03:43.663Z,22.57
2017-04-10T06:04:42.173Z,23.30
2017-04-10T06:05:40.647Z,22.90
2017-04-10T06:06:38.938Z,23.70
2017-04-10T06:07:37.290Z,23.23
2017-04-10T06:08:35.734Z,23.70
2017-04-10T06:09:34.033Z,22.70
2017-04-10T06:10:32.301Z,22.05
2017-04-10T06:11:30.556Z,24.80
2017-04-10T06:12:28.938Z,23.85
2017-04-10T06:13:27.321Z,22.62
2017-04-10T06:14:25.583Z,21.85
2017-04-10T06:15:23.821Z,21.92
2017-04-10T06:16:22.096Z,22.37
2017-04-10T06:17:20.320Z,22.98
2017-04-10T06:18:18.597Z,23.07
2017-04-10T06:19:16.853Z,23.30
2017-04-10T06:20:15.110Z,23.22
2017-04-10T06:21:13.414Z,25.58
2017-04-10T06:22:11.710Z,25.60
2017-04-10T06:23:09.956Z,22.92
2017-04-10T06:24:08.230Z,24.68
2017-04-10T06:25:06.488Z,25.25
2017-04-10T06:26:04.748Z,24.57
2017-04-10T06:27:03.015Z,24.93
2017-04-10T06:28:01.290Z,22.95
2017-04-10T06:28:59.596Z,23.68
2017-04-10T06:29:57.915Z,24.88
2017-04-10T06:30:56.167Z,23.45
2017-04-10T06:31:54.497Z,24.22
2017-04-10T06:32:52.811Z,25.15
2017-04-10T06:33:51.113Z,24.18
2017-04-10T06:34:49.431Z,25.72
2017-04-10T06:35:47.716Z,23.72
2017-04-10T06:36:46.003Z,24.57
2017-04-10T06:37:44.320Z,25.15
2017-04-10T06:38:42.604Z,26.15
2017-04-10T06:39:40.919Z,25.02
2017-04-10T06:40:39.212Z,26.35
2017-04-10T06:41:37.501Z,27.27
2017-04-10T06:42:35.800Z,25.62
2017-04-10T06:43:34.087Z,25.75
2017-04-10T06:44:32.404Z,25.87
2017-04-10T06:45:30.701Z,26.62
2017-04-10T06:46:29.016Z,26.80
2017-04-10T06:47:27.377Z,26.05
2017-04-10T06:48:25.674Z,26.70
2017-04-10T06:49:23.952Z,28.37
2017-04-10T06:50:22.257Z,26.10
2017-04-10T06:51:20.564Z,27.15
2017-04-10T06:52:18.841Z,25.97
2017-04-10T06:53:17.138Z,25.77
2017-04-10T06:54:15.400Z,25.50
2017-04-10T06:55:13.701Z,26.30
2017-04-10T06:56:12.307Z,27.12
2017-04-10T06:57:10.614Z,23.40
2017-04-10T06:58:08.917Z,25.50
2017-04-10T06:59:07.192Z,25.92
2017-04-10T07:00:05.509Z,26.30
2017-04-10T07:01:04.073Z,24.65
2017-04-10T07:02:02.397Z,24.30
2017-04-10T07:03:04.730Z,25.93
2017-04-10T07:04:03.017Z,26.10
2017-04-10T07:05:01.422Z,24.73
2017-04-10T07:05:59.822Z,25.17
2017-04-10T07:06:58.121Z,26.17
2017-04-10T07:07:56.518Z,23.75
2017-04-10T07:08:54.898Z,23.53
2017-04-10T07:09:53.388Z,24.25
2017-04-10T07:10:51.661Z,24.05
2017-04-10T07:11:49.925Z,25.85
2017-04-10T07:12:48.641Z,24.43
2017-04-10T07:13:47.066Z,25.63
2017-04-10T07:14:45.455Z,24.77
2017-04-10T07:15:43.873Z,26.58
2017-04-10T07:16:42.307Z,26.38
2017-04-10T07:17:40.907Z,25.33
2017-04-10T07:18:39.201Z,24.88
2017-04-10T07:19:37.481Z,23.48
2017-04-10T07:20:35.747Z,24.73
2017-04-10T07:21:34.018Z,24.20
2017-04-10T07:22:32.344Z,26.57
2017-04-10T07:23:30.605Z,23.97
2017-04-10T07:24:28.870Z,24.23
2017-04-10T07:25:27.593Z,23.50
2017-04-10T07:26:26.004Z,25.95
2017-04-10T07:27:24.301Z,22.80
2017-04-10T07:28:22.555Z,21.55
2017-04-10T07:29:20.813Z,24.02
2017-04-10T07:30:19.104Z,22.88
2017-04-10T07:31:17.389Z,23.90
2017-04-10T07:32:15.712Z,21.28
2017-04-10T07:33:14.009Z,21.63
2017-04-10T07:34:12.310Z,22.07
2017-04-10T07:35:10.611Z,21.48
2017-04-10T07:36:08.939Z,22.22
2017-04-10T07:37:07.260Z,21.53
2017-04-10T07:38:05.528Z,23.32
2017-04-10T07:39:04.372Z,21.47
2017-04-10T07:40:02.706Z,21.63
2017-04-10T07:41:00.969Z,21.28
2017-04-10T07:41:59.234Z,21.60
2017-04-10T07:42:57.517Z,23.22
2017-04-10T07:43:55.793Z,21.78
2017-04-10T07:44:54.040Z,20.42
2017-04-10T07:45:52.304Z,22.48
2017-04-10T07:46:50.536Z,21.68
2017-04-10T07:47:48.806Z,23.22
2017-04-10T07:48:47.065Z,20.50
2017-04-10T07:49:45.353Z,20.88
2017-04-10T07:50:43.612Z,20.63
2017-04-10T07:51:41.877Z,20.52
2017-04-10T07:52:40.158Z,21.23
2017-04-10T07:53:38.433Z,20.78
2017-04-10T07:54:36.704Z,19.43
2017-04-10T07:55:34.984Z,20.37
2017-04-10T07:56:33.974Z,19.35
2017-04-10T07:57:32.253Z,18.85
2017-04-10T07:58:30.528Z,18.42
2017-04-10T07:59:28.789Z,17.92
2017-04-10T08:00:27.089Z,20.10
2017-04-10T08:01:25.393Z,19.75
2017-04-10T08:02:23.672Z,19.97
2017-04-10T08:03:21.962Z,19.73
2017-04-10T08:04:20.210Z,19.05
2017-04-10T08:05:18.461Z,18.28
2017-04-10T08:06:16.757Z,17.70
2017-04-10T08:07:15.012Z,19.02
2017-04-10T08:08:13.283Z,18.55
2017-04-10T08:09:11.516Z,17.85
2017-04-10T08:10:09.772Z,17.67
2017-04-10T08:11:08.015Z,19.02
2017-04-10T08:12:06.285Z,18.67
2017-04-10T08:13:04.546Z,17.73
2017-04-10T08:14:02.813Z,18.82
2017-04-10T08:15:01.097Z,17.87
2017-04-10T08:15:59.369Z,19.30
2017-04-10T08:16:57.623Z,17.95
2017-04-10T08:17:55.962Z,17.42
2017-04-10T08:18:54.218Z,18.50
2017-04-10T08:19:52.499Z,19.13
2017-04-10T08:20:50.826Z,19.08
2017-04-10T08:21:49.109Z,17.12
2017-04-10T08:22:47.602Z,17.48
2017-04-10T08:23:45.950Z,18.03
2017-04-10T08:24:44.257Z,18.42
2017-04-10T08:25:42.515Z,17.63
2017-04-10T08:26:40.805Z,19.28
2017-04-10T08:27:39.110Z,17.13
2017-04-10T08:28:37.457Z,18.55
2017-04-10T08:29:35.750Z,17.52
2017-04-10T08:30:39.556Z,16.37
2017-04-10T08:31:38.530Z,17.53
2017-04-10T08:32:36.824Z,18.08
2017-04-10T08:33:35.072Z,18.58
2017-04-10T08:34:33.321Z,17.18
2017-04-10T08:35:31.601Z,17.22
2017-04-10T08:36:29.873Z,16.77
2017-04-10T08:37:28.115Z,16.05
2017-04-10T08:38:26.402Z,16.17
2017-04-10T08:39:24.647Z,16.10
2017-04-10T08:40:22.927Z,17.10
2017-04-10T08:41:21.230Z,16.58
2017-04-10T08:42:19.544Z,14.98
2017-04-10T08:43:17.829Z,16.52
2017-04-10T08:44:16.146Z,16.22
2017-04-10T08:45:14.440Z,16.33
2017-04-10T08:46:12.710Z,15.85
2017-04-10T08:47:11.028Z,15.18
2017-04-10T08:48:09.309Z,15.52
2017-04-10T08:49:07.622Z,15.00
2017-04-10T08:50:05.903Z,15.83
2017-04-10T08:51:04.170Z,15.62
2017-04-10T08:52:02.449Z,14.15
2017-04-10T08:53:01.546Z,14.17
2017-04-10T08:53:59.841Z,14.70
2017-04-10T08:54:58.172Z,14.95
2017-04-10T08:55:56.459Z,15.35
2017-04-10T08:56:54.765Z,14.95
2017-04-10T08:57:53.069Z,13.97
2017-04-10T08:58:51.394Z,15.18
2017-04-10T08:59:49.704Z,14.57
2017-04-10T09:00:48.005Z,14.68
2017-04-10T09:01:46.297Z,14.52
2017-04-10T09:02:44.629Z,14.02
2017-04-10T09:03:42.926Z,13.20
2017-04-10T09:04:41.223Z,14.68
2017-04-10T09:05:39.497Z,13.38
2017-04-10T09:06:37.764Z,14.28
2017-04-10T09:07:36.022Z,13.62
2017-04-10T09:08:34.351Z,15.38
2017-04-10T09:09:33.154Z,13.63
2017-04-10T09:10:31.483Z,14.25
2017-04-10T09:11:29.889Z,14.30
2017-04-10T09:12:28.176Z,14.22
2017-04-10T09:13:26.441Z,13.77
2017-04-10T09:14:24.692Z,14.45
2017-04-10T09:15:23.078Z,12.48
2017-04-10T09:16:21.384Z,13.50
2017-04-10T09:17:19.639Z,13.52
2017-04-10T09:18:18.042Z,11.67
2017-04-10T09:19:16.298Z,13.50
2017-04-10T09:20:14.568Z,12.43
2017-04-10T09:21:12.845Z,12.95
2017-04-10T09:22:11.145Z,12.08
2017-04-10T09:23:09.418Z,12.73
2017-04-10T09:24:07.780Z,11.77
2017-04-10T09:25:06.037Z,11.80
2017-04-10T09:26:04.297Z,12.45
2017-04-10T09:27:02.596Z,11.47
2017-04-10T09:28:00.859Z,12.43
2017-04-10T09:28:59.142Z,11.67
2017-04-10T09:29:57.407Z,12.22
2017-04-10T09:30:55.675Z,12.87
2017-04-10T09:31:53.960Z,11.93
2017-04-10T09:32:52.237Z,12.40
2017-04-10T09:33:50.513Z,12.53
2017-04-10T09:34:48.837Z,13.07
2017-04-10T09:35:47.109Z,13.90
2017-04-10T09:36:45.369Z,12.95
2017-04-10T09:37:43.657Z,12.30
2017-04-10T09:38:41.928Z,12.47
2017-04-10T09:39:40.505Z,12.12
2017-04-10T09:40:38.901Z,12.65
2017-04-10T09:41:37.157Z,12.67
2017-04-10T09:42:35.478Z,11.92
2017-04-10T09:43:33.745Z,12.02
2017-04-10T09:44:32.046Z,11.32
2017-04-10T09:45:30.333Z,11.02
2017-04-10T09:46:28.595Z,11.55
2017-04-10T09:47:26.890Z,11.00
2017-04-10T09:48:25.205Z,9.98
2017-04-10T09:49:23.490Z,13.10
2017-04-10T09:50:21.801Z,11.52
2017-04-10T09:51:20.165Z,10.93
2017-04-10T09:52:18.468Z,11.73
2017-04-10T09:53:16.809Z,10.67
2017-04-10T09:54:15.102Z,12.35
2017-04-10T09:55:13.349Z,11.88
2017-04-10T09:56:11.718Z,11.82
2017-04-10T09:57:10.932Z,12.37
2017-04-10T09:58:09.201Z,12.97
2017-04-10T09:59:07.485Z,11.75
2017-04-10T10:00:05.797Z,11.82
2017-04-10T10:01:04.092Z,11.48
2017-04-10T10:02:02.373Z,11.55
2017-04-10T10:03:00.684Z,11.12
2017-04-10T10:03:59.086Z,11.40
2017-04-10T10:04:57.389Z,12.42
2017-04-10T10:05:55.758Z,11.30
2017-04-10T10:06:54.017Z,12.38
2017-04-10T10:07:52.266Z,10.57
2017-04-10T10:08:50.581Z,11.73
2017-04-10T10:09:49.032Z,12.48
2017-04-10T10:10:47.351Z,11.38
2017-04-10T10:11:45.649Z,11.85
2017-04-10T10:12:44.196Z,11.90
2017-04-10T10:13:42.493Z,12.13
2017-04-10T10:14:40.789Z,11.13
2017-04-10T10:15:39.105Z,12.43
2017-04-10T10:16:37.412Z,12.70
2017-04-10T10:17:35.661Z,12.75
2017-04-10T10:18:33.987Z,13.62
2017-04-10T10:19:32.257Z,11.50
2017-04-10T10:20:30.612Z,10.40
2017-04-10T10:21:28.892Z,12.52
2017-04-10T10:22:27.159Z,11.90
2017-04-10T10:23:25.441Z,13.00
2017-04-10T10:24:23.726Z,12.60
2017-04-10T10:25:22.008Z,12.60
2017-04-10T10:26:20.318Z,12.10
2017-04-10T10:27:18.846Z,11.78
2017-04-10T10:28:17.142Z,11.63
2017-04-10T10:29:15.445Z,12.02
2017-04-10T10:30:13.742Z,11.62
2017-04-10T10:31:12.015Z,12.28
2017-04-10T10:32:10.349Z,13.67
2017-04-10T10:33:08.621Z,13.60
2017-04-10T10:34:06.925Z,13.78
2017-04-10T10:35:05.200Z,13.45
2017-04-10T10:36:03.489Z,15.57
2017-04-10T10:37:01.837Z,14.70
2017-04-10T10:38:00.144Z,14.03
2017-04-10T10:38:58.405Z,14.33
2017-04-10T10:39:56.668Z,15.13
2017-04-10T10:40:55.343Z,15.53
2017-04-10T10:41:53.656Z,15.93
2017-04-10T10:42:51.983Z,15.38
2017-04-10T10:43:50.269Z,14.37
2017-04-10T10:44:48.577Z,12.98
2017-04-10T10:45:46.881Z,13.90
2017-04-10T10:46:45.185Z,12.67
2017-04-10T10:47:43.466Z,11.25
2017-04-10T10:48:41.758Z,9.80
2017-04-10T10:49:40.038Z,8.90
2017-04-10T10:50:38.368Z,9.80
2017-04-10T10:51:36.661Z,11.02
2017-04-10T10:52:34.939Z,9.80
2017-04-10T10:53:33.269Z,8.92
2017-04-10T10:54:31.541Z,8.33
2017-04-10T10:55:29.844Z,9.82
2017-04-10T10:56:28.114Z,8.60
2017-04-10T10:57:26.376Z,10.10
2017-04-10T10:58:24.661Z,9.07
2017-04-10T10:59:22.940Z,10.15
2017-04-10T11:00:21.205Z,10.45
2017-04-10T11:01:19.565Z,9.02
2017-04-10T11:02:17.884Z,10.23
2017-04-10T11:03:16.193Z,10.55
2017-04-10T11:04:14.455Z,9.58
2017-04-10T11:05:12.900Z,10.15
2017-04-10T11:06:11.233Z,10.12
2017-04-10T11:07:09.537Z,9.88
2017-04-10T11:08:07.897Z,9.70
2017-04-10T11:09:06.166Z,10.28
2017-04-10T11:10:04.433Z,9.48
2017-04-10T11:11:02.698Z,8.85
2017-04-10T11:12:00.981Z,10.13
2017-04-10T11:12:59.274Z,10.63
2017-04-10T11:13:57.542Z,10.13
2017-04-10T11:14:55.820Z,11.02
2017-04-10T11:15:54.119Z,10.70
2017-04-10T11:16:52.434Z,11.02
2017-04-10T11:17:50.732Z,11.52
2017-04-10T11:18:49.022Z,10.93
2017-04-10T11:19:47.297Z,11.42
2017-04-10T11:20:45.593Z,10.32
2017-04-10T11:21:43.901Z,10.18
2017-04-10T11:22:42.176Z,9.73
2017-04-10T11:23:40.497Z,11.95
2017-04-10T11:24:38.825Z,13.10
2017-04-10T11:25:37.094Z,12.80
2017-04-10T11:26:35.364Z,12.22
2017-04-10T11:27:33.645Z,13.40
2017-04-10T11:28:31.920Z,13.27
2017-04-10T11:29:30.185Z,13.73
2017-04-10T11:30:28.493Z,13.92
2017-04-10T11:31:26.770Z,13.42
2017-04-10T11:32:25.040Z,14.98
2017-04-10T11:33:23.315Z,14.40
2017-04-10T11:34:21.594Z,17.82
2017-04-10T11:35:19.825Z,16.17
2017-04-10T11:36:18.142Z,15.68
2017-04-10T11:37:16.400Z,15.35
2017-04-10T11:38:14.692Z,16.13
2017-04-10T11:39:13.012Z,15.02
2017-04-10T11:40:11.256Z,14.60
2017-04-10T11:41:09.546Z,16.45
2017-04-10T11:42:07.905Z,16.28
2017-04-10T11:43:06.212Z,15.27
2017-04-10T11:44:04.524Z,17.42
2017-04-10T11:45:02.854Z,14.92
2017-04-10T11:46:01.177Z,15.28
2017-04-10T11:46:59.447Z,14.72
2017-04-10T11:47:57.724Z,15.53
2017-04-10T11:48:56.000Z,15.62
2017-04-10T11:49:54.260Z,16.82
2017-04-10T11:50:52.588Z,16.55
2017-04-10T11:51:50.877Z,16.12
2017-04-10T11:52:49.322Z,16.22
2017-04-10T11:53:47.618Z,17.75
2017-04-10T11:54:45.885Z,18.72
2017-04-10T11:55:44.139Z,19.83
2017-04-10T11:56:42.444Z,18.92
2017-04-10T11:57:40.724Z,17.48
2017-04-10T11:58:38.999Z,18.15
2017-04-10T11:59:37.309Z,19.02
2017-04-10T12:00:35.640Z,20.12
2017-04-10T12:01:33.909Z,21.15
2017-04-10T12:02:32.213Z,18.78
2017-04-10T12:03:30.524Z,18.97
2017-04-10T12:04:28.836Z,20.43
2017-04-10T12:05:27.128Z,19.58
2017-04-10T12:06:25.436Z,19.73
2017-04-10T12:07:23.736Z,19.95
2017-04-10T12:08:22.016Z,18.17
2017-04-10T12:09:20.272Z,22.80
2017-04-10T12:10:18.508Z,23.22
2017-04-10T12:11:16.780Z,21.40
2017-04-10T12:12:15.058Z,20.48
2017-04-10T12:13:13.338Z,22.58
2017-04-10T12:14:11.600Z,20.55
2017-04-10T12:15:09.867Z,21.63
2017-04-10T12:16:08.146Z,20.87
2017-04-10T12:17:06.418Z,21.18
2017-04-10T12:18:04.678Z,24.13
2017-04-10T12:19:02.940Z,22.83
2017-04-10T12:20:01.234Z,24.48
2017-04-10T12:20:59.547Z,24.57
2017-04-10T12:21:57.868Z,21.52
2017-04-10T12:22:56.192Z,21.98
2017-04-10T12:23:54.429Z,22.72
2017-04-10T12:24:52.733Z,22.90
2017-04-10T12:25:51.177Z,20.70
2017-04-10T12:26:49.424Z,22.35
2017-04-10T12:27:47.709Z,23.57
2017-04-10T12:28:46.012Z,23.23
2017-04-10T12:29:44.353Z,22.87
2017-04-10T12:30:42.628Z,23.50
2017-04-10T12:31:40.895Z,22.82